sensor_id;sensor_type;location;lat;lon;timestamp;P1;durP1;ratioP1;P2;durP2;ratioP2
34657;SDS011;20865;43.312;27.152;2022-10-17T00:00:04;5.70;;;2.95;;
34657;SDS011;20865;43.312;27.152;2022-10-17T00:02:32;6.47;;;2.98;;
34657;SDS011;20865;43.312;27.152;2022-10-17T00:05:00;5.67;;;2.75;;
34657;SDS011;20865;43.312;27.152;2022-10-17T00:07:28;4.20;;;2.42;;
34657;SDS011;20865;43.312;27.152;2022-10-17T00:09:56;5.05;;;2.55;;
34657;SDS011;20865;43.312;27.152;2022-10-17T00:12:24;4.62;;;2.58;;
34657;SDS011;20865;43.312;27.152;2022-10-17T00:14:51;9.13;;;3.17;;
34657;SDS011;20865;43.312;27.152;2022-10-17T00:17:19;4.35;;;2.55;;
34657;SDS011;20865;43.312;27.152;2022-10-17T00:19:46;4.08;;;2.40;;
34657;SDS011;20865;43.312;27.152;2022-10-17T00:22:14;4.70;;;2.42;;
34657;SDS011;20865;43.312;27.152;2022-10-17T00:24:42;4.75;;;2.47;;
34657;SDS011;20865;43.312;27.152;2022-10-17T00:27:09;3.25;;;2.05;;
34657;SDS011;20865;43.312;27.152;2022-10-17T00:29:37;7.00;;;2.92;;
34657;SDS011;20865;43.312;27.152;2022-10-17T00:32:04;9.45;;;2.72;;
34657;SDS011;20865;43.312;27.152;2022-10-17T00:34:32;7.05;;;3.25;;
34657;SDS011;20865;43.312;27.152;2022-10-17T00:37:00;6.50;;;3.00;;
34657;SDS011;20865;43.312;27.152;2022-10-17T00:39:27;6.75;;;2.92;;
34657;SDS011;20865;43.312;27.152;2022-10-17T00:41:55;12.20;;;3.20;;
34657;SDS011;20865;43.312;27.152;2022-10-17T00:47:03;6.60;;;3.20;;
34657;SDS011;20865;43.312;27.152;2022-10-17T00:49:33;7.22;;;2.80;;
34657;SDS011;20865;43.312;27.152;2022-10-17T00:52:03;7.92;;;2.83;;
34657;SDS011;20865;43.312;27.152;2022-10-17T00:54:38;6.40;;;2.90;;
34657;SDS011;20865;43.312;27.152;2022-10-17T00:57:03;4.80;;;2.50;;
34657;SDS011;20865;43.312;27.152;2022-10-17T00:59:35;3.65;;;2.22;;
34657;SDS011;20865;43.312;27.152;2022-10-17T01:02:06;3.83;;;2.37;;
34657;SDS011;20865;43.312;27.152;2022-10-17T01:04:42;5.57;;;3.00;;
34657;SDS011;20865;43.312;27.152;2022-10-17T01:07:12;5.03;;;2.10;;
34657;SDS011;20865;43.312;27.152;2022-10-17T01:09:40;8.10;;;3.62;;
34657;SDS011;20865;43.312;27.152;2022-10-17T01:15:01;9.55;;;3.20;;
34657;SDS011;20865;43.312;27.152;2022-10-17T01:17:54;6.87;;;3.12;;
34657;SDS011;20865;43.312;27.152;2022-10-17T01:21:25;6.53;;;2.62;;
34657;SDS011;20865;43.312;27.152;2022-10-17T01:23:17;5.17;;;2.67;;
34657;SDS011;20865;43.312;27.152;2022-10-17T01:26:07;5.40;;;2.72;;
34657;SDS011;20865;43.312;27.152;2022-10-17T01:28:50;5.92;;;2.50;;
34657;SDS011;20865;43.312;27.152;2022-10-17T01:31:34;8.40;;;3.10;;
34657;SDS011;20865;43.312;27.152;2022-10-17T01:34:12;7.87;;;3.05;;
34657;SDS011;20865;43.312;27.152;2022-10-17T01:39:29;5.75;;;3.20;;
34657;SDS011;20865;43.312;27.152;2022-10-17T01:44:41;6.03;;;2.72;;
34657;SDS011;20865;43.312;27.152;2022-10-17T01:47:10;4.33;;;2.37;;
34657;SDS011;20865;43.312;27.152;2022-10-17T01:49:40;5.92;;;2.65;;
34657;SDS011;20865;43.312;27.152;2022-10-17T01:52:12;4.33;;;2.55;;
34657;SDS011;20865;43.312;27.152;2022-10-17T01:54:48;6.17;;;2.77;;
34657;SDS011;20865;43.312;27.152;2022-10-17T01:57:35;7.90;;;2.90;;
34657;SDS011;20865;43.312;27.152;2022-10-17T02:00:12;6.28;;;2.90;;
34657;SDS011;20865;43.312;27.152;2022-10-17T02:02:41;5.97;;;3.10;;
34657;SDS011;20865;43.312;27.152;2022-10-17T02:05:10;5.90;;;2.70;;
34657;SDS011;20865;43.312;27.152;2022-10-17T02:07:40;6.40;;;3.00;;
34657;SDS011;20865;43.312;27.152;2022-10-17T02:10:12;7.00;;;3.20;;
34657;SDS011;20865;43.312;27.152;2022-10-17T02:13:01;6.90;;;2.58;;
34657;SDS011;20865;43.312;27.152;2022-10-17T02:18:36;6.70;;;3.47;;
34657;SDS011;20865;43.312;27.152;2022-10-17T02:21:29;6.87;;;3.27;;
34657;SDS011;20865;43.312;27.152;2022-10-17T02:26:28;5.65;;;3.35;;
34657;SDS011;20865;43.312;27.152;2022-10-17T02:29:07;6.80;;;3.65;;
34657;SDS011;20865;43.312;27.152;2022-10-17T02:31:41;4.22;;;2.15;;
34657;SDS011;20865;43.312;27.152;2022-10-17T02:34:24;7.15;;;3.40;;
34657;SDS011;20865;43.312;27.152;2022-10-17T02:36:50;6.67;;;2.80;;
34657;SDS011;20865;43.312;27.152;2022-10-17T02:39:19;4.03;;;2.80;;
34657;SDS011;20865;43.312;27.152;2022-10-17T02:41:49;6.80;;;3.00;;
34657;SDS011;20865;43.312;27.152;2022-10-17T02:44:20;7.00;;;3.12;;
34657;SDS011;20865;43.312;27.152;2022-10-17T02:46:53;6.45;;;3.52;;
34657;SDS011;20865;43.312;27.152;2022-10-17T02:49:24;7.12;;;3.22;;
34657;SDS011;20865;43.312;27.152;2022-10-17T02:52:01;5.40;;;2.90;;
34657;SDS011;20865;43.312;27.152;2022-10-17T02:54:57;9.88;;;3.02;;
34657;SDS011;20865;43.312;27.152;2022-10-17T02:57:34;5.83;;;3.02;;
34657;SDS011;20865;43.312;27.152;2022-10-17T03:00:03;11.88;;;3.37;;
34657;SDS011;20865;43.312;27.152;2022-10-17T03:02:43;13.55;;;3.50;;
34657;SDS011;20865;43.312;27.152;2022-10-17T03:05:13;6.65;;;2.80;;
34657;SDS011;20865;43.312;27.152;2022-10-17T03:07:42;8.03;;;3.25;;
34657;SDS011;20865;43.312;27.152;2022-10-17T03:10:10;7.87;;;3.17;;
34657;SDS011;20865;43.312;27.152;2022-10-17T03:12:38;6.87;;;3.00;;
34657;SDS011;20865;43.312;27.152;2022-10-17T03:15:06;10.75;;;3.25;;
34657;SDS011;20865;43.312;27.152;2022-10-17T03:17:34;7.75;;;2.90;;
34657;SDS011;20865;43.312;27.152;2022-10-17T03:20:02;7.62;;;2.87;;
34657;SDS011;20865;43.312;27.152;2022-10-17T03:22:31;5.80;;;2.85;;
34657;SDS011;20865;43.312;27.152;2022-10-17T03:24:59;4.65;;;2.83;;
34657;SDS011;20865;43.312;27.152;2022-10-17T03:27:27;4.37;;;2.50;;
34657;SDS011;20865;43.312;27.152;2022-10-17T03:29:54;3.95;;;2.45;;
34657;SDS011;20865;43.312;27.152;2022-10-17T03:32:22;6.12;;;2.77;;
34657;SDS011;20865;43.312;27.152;2022-10-17T03:34:49;10.48;;;2.60;;
34657;SDS011;20865;43.312;27.152;2022-10-17T03:37:17;10.13;;;3.08;;
34657;SDS011;20865;43.312;27.152;2022-10-17T03:39:44;7.58;;;2.83;;
34657;SDS011;20865;43.312;27.152;2022-10-17T03:42:12;10.18;;;3.02;;
34657;SDS011;20865;43.312;27.152;2022-10-17T03:44:39;4.92;;;2.87;;
34657;SDS011;20865;43.312;27.152;2022-10-17T03:47:07;10.30;;;2.95;;
34657;SDS011;20865;43.312;27.152;2022-10-17T03:49:35;5.25;;;2.50;;
34657;SDS011;20865;43.312;27.152;2022-10-17T03:52:02;6.37;;;3.00;;
34657;SDS011;20865;43.312;27.152;2022-10-17T03:54:30;5.22;;;2.65;;
34657;SDS011;20865;43.312;27.152;2022-10-17T03:56:57;6.78;;;3.00;;
34657;SDS011;20865;43.312;27.152;2022-10-17T03:59:25;5.40;;;2.67;;
34657;SDS011;20865;43.312;27.152;2022-10-17T04:01:52;4.35;;;2.25;;
34657;SDS011;20865;43.312;27.152;2022-10-17T04:04:20;4.55;;;2.92;;
34657;SDS011;20865;43.312;27.152;2022-10-17T04:06:48;8.00;;;2.55;;
34657;SDS011;20865;43.312;27.152;2022-10-17T04:09:15;7.95;;;2.92;;
34657;SDS011;20865;43.312;27.152;2022-10-17T04:11:43;9.83;;;3.00;;
34657;SDS011;20865;43.312;27.152;2022-10-17T04:14:11;7.25;;;3.15;;
34657;SDS011;20865;43.312;27.152;2022-10-17T04:16:39;4.83;;;3.20;;
34657;SDS011;20865;43.312;27.152;2022-10-17T04:19:06;9.05;;;2.60;;
34657;SDS011;20865;43.312;27.152;2022-10-17T04:21:35;5.42;;;2.98;;
34657;SDS011;20865;43.312;27.152;2022-10-17T04:24:03;7.35;;;3.15;;
34657;SDS011;20865;43.312;27.152;2022-10-17T04:26:31;5.15;;;3.15;;
34657;SDS011;20865;43.312;27.152;2022-10-17T04:28:58;5.90;;;2.85;;
34657;SDS011;20865;43.312;27.152;2022-10-17T04:31:26;9.18;;;3.15;;
34657;SDS011;20865;43.312;27.152;2022-10-17T04:33:54;5.70;;;2.80;;
34657;SDS011;20865;43.312;27.152;2022-10-17T04:36:21;6.37;;;3.35;;
34657;SDS011;20865;43.312;27.152;2022-10-17T04:38:49;15.93;;;3.47;;
34657;SDS011;20865;43.312;27.152;2022-10-17T04:41:17;7.62;;;4.03;;
34657;SDS011;20865;43.312;27.152;2022-10-17T04:43:44;5.42;;;3.15;;
34657;SDS011;20865;43.312;27.152;2022-10-17T04:46:13;5.70;;;2.87;;
34657;SDS011;20865;43.312;27.152;2022-10-17T04:48:40;8.55;;;3.67;;
34657;SDS011;20865;43.312;27.152;2022-10-17T04:51:12;5.92;;;3.05;;
34657;SDS011;20865;43.312;27.152;2022-10-17T04:53:41;6.25;;;3.15;;
34657;SDS011;20865;43.312;27.152;2022-10-17T04:56:12;7.65;;;3.50;;
34657;SDS011;20865;43.312;27.152;2022-10-17T04:58:43;7.85;;;3.10;;
34657;SDS011;20865;43.312;27.152;2022-10-17T05:01:18;7.85;;;3.47;;
34657;SDS011;20865;43.312;27.152;2022-10-17T05:03:47;7.03;;;3.02;;
34657;SDS011;20865;43.312;27.152;2022-10-17T05:06:16;9.48;;;3.77;;
34657;SDS011;20865;43.312;27.152;2022-10-17T05:08:45;7.75;;;3.58;;
34657;SDS011;20865;43.312;27.152;2022-10-17T05:11:20;7.80;;;3.72;;
34657;SDS011;20865;43.312;27.152;2022-10-17T05:13:44;5.00;;;2.98;;
34657;SDS011;20865;43.312;27.152;2022-10-17T05:16:20;8.98;;;3.50;;
34657;SDS011;20865;43.312;27.152;2022-10-17T05:18:48;9.48;;;3.40;;
34657;SDS011;20865;43.312;27.152;2022-10-17T05:21:17;6.60;;;3.72;;
34657;SDS011;20865;43.312;27.152;2022-10-17T05:23:46;10.28;;;3.87;;
34657;SDS011;20865;43.312;27.152;2022-10-17T05:26:13;20.05;;;4.17;;
34657;SDS011;20865;43.312;27.152;2022-10-17T05:28:41;6.62;;;3.15;;
34657;SDS011;20865;43.312;27.152;2022-10-17T05:31:09;6.50;;;3.22;;
34657;SDS011;20865;43.312;27.152;2022-10-17T05:33:37;6.78;;;3.22;;
34657;SDS011;20865;43.312;27.152;2022-10-17T05:36:05;7.85;;;3.95;;
34657;SDS011;20865;43.312;27.152;2022-10-17T05:38:34;6.70;;;3.22;;
34657;SDS011;20865;43.312;27.152;2022-10-17T05:41:02;6.00;;;3.08;;
34657;SDS011;20865;43.312;27.152;2022-10-17T05:43:31;12.90;;;3.15;;
34657;SDS011;20865;43.312;27.152;2022-10-17T05:46:08;6.78;;;3.80;;
34657;SDS011;20865;43.312;27.152;2022-10-17T05:48:32;7.85;;;3.52;;
34657;SDS011;20865;43.312;27.152;2022-10-17T05:51:00;6.33;;;3.40;;
34657;SDS011;20865;43.312;27.152;2022-10-17T05:53:34;6.40;;;3.60;;
34657;SDS011;20865;43.312;27.152;2022-10-17T05:56:04;7.10;;;3.37;;
34657;SDS011;20865;43.312;27.152;2022-10-17T05:58:34;7.87;;;3.27;;
34657;SDS011;20865;43.312;27.152;2022-10-17T06:01:03;7.20;;;3.25;;
34657;SDS011;20865;43.312;27.152;2022-10-17T06:03:32;9.65;;;3.40;;
34657;SDS011;20865;43.312;27.152;2022-10-17T06:06:03;6.37;;;3.42;;
34657;SDS011;20865;43.312;27.152;2022-10-17T06:08:32;9.85;;;2.95;;
34657;SDS011;20865;43.312;27.152;2022-10-17T06:11:00;5.95;;;3.47;;
34657;SDS011;20865;43.312;27.152;2022-10-17T06:13:28;7.10;;;3.05;;
34657;SDS011;20865;43.312;27.152;2022-10-17T06:15:56;6.85;;;3.00;;
34657;SDS011;20865;43.312;27.152;2022-10-17T06:18:23;6.45;;;3.02;;
34657;SDS011;20865;43.312;27.152;2022-10-17T06:20:51;10.63;;;3.10;;
34657;SDS011;20865;43.312;27.152;2022-10-17T06:23:19;6.20;;;3.05;;
34657;SDS011;20865;43.312;27.152;2022-10-17T06:25:47;13.05;;;3.12;;
34657;SDS011;20865;43.312;27.152;2022-10-17T06:28:14;4.45;;;2.70;;
34657;SDS011;20865;43.312;27.152;2022-10-17T06:30:42;5.92;;;2.70;;
34657;SDS011;20865;43.312;27.152;2022-10-17T06:33:10;5.35;;;2.90;;
34657;SDS011;20865;43.312;27.152;2022-10-17T06:35:37;5.25;;;3.05;;
34657;SDS011;20865;43.312;27.152;2022-10-17T06:38:05;6.40;;;2.75;;
34657;SDS011;20865;43.312;27.152;2022-10-17T06:40:32;5.50;;;3.10;;
34657;SDS011;20865;43.312;27.152;2022-10-17T06:43:00;5.67;;;2.67;;
34657;SDS011;20865;43.312;27.152;2022-10-17T06:45:28;5.08;;;2.65;;
34657;SDS011;20865;43.312;27.152;2022-10-17T06:47:55;4.20;;;2.58;;
34657;SDS011;20865;43.312;27.152;2022-10-17T06:50:23;4.08;;;2.87;;
34657;SDS011;20865;43.312;27.152;2022-10-17T06:52:50;9.00;;;3.17;;
34657;SDS011;20865;43.312;27.152;2022-10-17T06:55:18;6.15;;;2.92;;
34657;SDS011;20865;43.312;27.152;2022-10-17T06:57:45;5.37;;;2.62;;
34657;SDS011;20865;43.312;27.152;2022-10-17T07:00:13;5.00;;;2.47;;
34657;SDS011;20865;43.312;27.152;2022-10-17T07:02:41;4.75;;;2.52;;
34657;SDS011;20865;43.312;27.152;2022-10-17T07:05:09;5.62;;;2.02;;
34657;SDS011;20865;43.312;27.152;2022-10-17T07:07:37;4.50;;;2.05;;
34657;SDS011;20865;43.312;27.152;2022-10-17T07:10:05;4.45;;;2.30;;
34657;SDS011;20865;43.312;27.152;2022-10-17T07:12:33;4.15;;;2.27;;
34657;SDS011;20865;43.312;27.152;2022-10-17T07:15:02;5.62;;;2.65;;
34657;SDS011;20865;43.312;27.152;2022-10-17T07:17:30;4.25;;;2.90;;
34657;SDS011;20865;43.312;27.152;2022-10-17T07:19:58;5.17;;;2.17;;
34657;SDS011;20865;43.312;27.152;2022-10-17T07:22:26;7.30;;;2.52;;
34657;SDS011;20865;43.312;27.152;2022-10-17T07:24:54;7.20;;;2.52;;
34657;SDS011;20865;43.312;27.152;2022-10-17T07:27:21;6.05;;;2.08;;
34657;SDS011;20865;43.312;27.152;2022-10-17T07:29:49;4.22;;;2.00;;
34657;SDS011;20865;43.312;27.152;2022-10-17T07:32:17;4.97;;;1.85;;
34657;SDS011;20865;43.312;27.152;2022-10-17T07:34:44;5.65;;;3.05;;
34657;SDS011;20865;43.312;27.152;2022-10-17T07:37:12;4.83;;;2.40;;
34657;SDS011;20865;43.312;27.152;2022-10-17T07:39:39;8.53;;;2.37;;
34657;SDS011;20865;43.312;27.152;2022-10-17T07:42:07;6.70;;;3.50;;
34657;SDS011;20865;43.312;27.152;2022-10-17T07:44:35;4.83;;;2.27;;
34657;SDS011;20865;43.312;27.152;2022-10-17T07:47:03;13.45;;;2.83;;
34657;SDS011;20865;43.312;27.152;2022-10-17T07:49:30;5.70;;;2.67;;
34657;SDS011;20865;43.312;27.152;2022-10-17T07:51:58;6.75;;;2.33;;
34657;SDS011;20865;43.312;27.152;2022-10-17T07:54:25;4.67;;;2.60;;
34657;SDS011;20865;43.312;27.152;2022-10-17T07:56:53;3.10;;;2.22;;
34657;SDS011;20865;43.312;27.152;2022-10-17T07:59:21;7.67;;;3.12;;
34657;SDS011;20865;43.312;27.152;2022-10-17T08:01:48;8.08;;;3.02;;
34657;SDS011;20865;43.312;27.152;2022-10-17T08:04:16;7.53;;;2.70;;
34657;SDS011;20865;43.312;27.152;2022-10-17T08:06:44;4.65;;;2.37;;
34657;SDS011;20865;43.312;27.152;2022-10-17T08:09:11;4.50;;;2.20;;
34657;SDS011;20865;43.312;27.152;2022-10-17T08:11:39;4.75;;;2.25;;
34657;SDS011;20865;43.312;27.152;2022-10-17T08:14:11;3.85;;;2.27;;
34657;SDS011;20865;43.312;27.152;2022-10-17T08:16:41;4.83;;;2.00;;
34657;SDS011;20865;43.312;27.152;2022-10-17T08:19:09;22.52;;;3.60;;
34657;SDS011;20865;43.312;27.152;2022-10-17T08:21:37;2.92;;;1.95;;
34657;SDS011;20865;43.312;27.152;2022-10-17T08:24:06;7.17;;;1.90;;
34657;SDS011;20865;43.312;27.152;2022-10-17T08:26:34;4.10;;;2.30;;
34657;SDS011;20865;43.312;27.152;2022-10-17T08:29:01;3.65;;;2.72;;
34657;SDS011;20865;43.312;27.152;2022-10-17T08:31:29;4.58;;;2.35;;
34657;SDS011;20865;43.312;27.152;2022-10-17T08:33:57;5.53;;;2.35;;
34657;SDS011;20865;43.312;27.152;2022-10-17T08:36:24;3.35;;;2.15;;
34657;SDS011;20865;43.312;27.152;2022-10-17T08:38:53;2.87;;;1.92;;
34657;SDS011;20865;43.312;27.152;2022-10-17T08:46:58;3.27;;;1.90;;
34657;SDS011;20865;43.312;27.152;2022-10-17T08:49:32;5.00;;;2.20;;
34657;SDS011;20865;43.312;27.152;2022-10-17T08:52:10;2.95;;;1.72;;
34657;SDS011;20865;43.312;27.152;2022-10-17T08:54:42;3.75;;;2.35;;
34657;SDS011;20865;43.312;27.152;2022-10-17T08:57:12;3.50;;;2.20;;
34657;SDS011;20865;43.312;27.152;2022-10-17T08:59:42;9.50;;;2.67;;
34657;SDS011;20865;43.312;27.152;2022-10-17T09:07:54;6.30;;;2.00;;
34657;SDS011;20865;43.312;27.152;2022-10-17T09:19:08;2.27;;;1.55;;
34657;SDS011;20865;43.312;27.152;2022-10-17T09:24:21;2.77;;;1.65;;
34657;SDS011;20865;43.312;27.152;2022-10-17T09:27:02;5.00;;;2.17;;
34657;SDS011;20865;43.312;27.152;2022-10-17T09:29:31;2.10;;;1.67;;
34657;SDS011;20865;43.312;27.152;2022-10-17T09:32:00;3.02;;;1.57;;
34657;SDS011;20865;43.312;27.152;2022-10-17T09:34:32;3.10;;;1.92;;
34657;SDS011;20865;43.312;27.152;2022-10-17T09:36:59;4.97;;;1.70;;
34657;SDS011;20865;43.312;27.152;2022-10-17T09:39:31;2.70;;;1.67;;
34657;SDS011;20865;43.312;27.152;2022-10-17T09:41:59;6.33;;;1.65;;
34657;SDS011;20865;43.312;27.152;2022-10-17T09:44:31;3.65;;;1.82;;
34657;SDS011;20865;43.312;27.152;2022-10-17T09:47:04;4.00;;;1.80;;
34657;SDS011;20865;43.312;27.152;2022-10-17T09:49:46;2.98;;;1.67;;
34657;SDS011;20865;43.312;27.152;2022-10-17T09:52:16;3.45;;;1.77;;
34657;SDS011;20865;43.312;27.152;2022-10-17T09:55:15;4.83;;;2.33;;
34657;SDS011;20865;43.312;27.152;2022-10-17T10:00:29;2.12;;;1.40;;
34657;SDS011;20865;43.312;27.152;2022-10-17T10:05:40;2.30;;;1.52;;
34657;SDS011;20865;43.312;27.152;2022-10-17T10:08:14;3.12;;;1.60;;
34657;SDS011;20865;43.312;27.152;2022-10-17T10:10:42;4.35;;;1.35;;
34657;SDS011;20865;43.312;27.152;2022-10-17T10:15:48;2.00;;;1.30;;
34657;SDS011;20865;43.312;27.152;2022-10-17T10:21:12;5.65;;;2.20;;
34657;SDS011;20865;43.312;27.152;2022-10-17T10:24:03;1.72;;;1.27;;
34657;SDS011;20865;43.312;27.152;2022-10-17T10:26:28;2.65;;;1.62;;
34657;SDS011;20865;43.312;27.152;2022-10-17T10:28:59;2.50;;;1.50;;
34657;SDS011;20865;43.312;27.152;2022-10-17T10:31:37;4.25;;;1.62;;
34657;SDS011;20865;43.312;27.152;2022-10-17T10:34:13;3.85;;;1.80;;
34657;SDS011;20865;43.312;27.152;2022-10-17T10:36:43;1.62;;;1.20;;
34657;SDS011;20865;43.312;27.152;2022-10-17T10:41:55;2.83;;;1.55;;
34657;SDS011;20865;43.312;27.152;2022-10-17T10:44:23;2.50;;;1.50;;
34657;SDS011;20865;43.312;27.152;2022-10-17T10:50:16;1.75;;;1.35;;
34657;SDS011;20865;43.312;27.152;2022-10-17T10:53:08;4.40;;;1.92;;
34657;SDS011;20865;43.312;27.152;2022-10-17T10:55:35;20.23;;;8.93;;
34657;SDS011;20865;43.312;27.152;2022-10-17T10:58:09;3.37;;;1.70;;
34657;SDS011;20865;43.312;27.152;2022-10-17T11:00:31;3.60;;;2.17;;
34657;SDS011;20865;43.312;27.152;2022-10-17T11:03:09;2.47;;;1.50;;
34657;SDS011;20865;43.312;27.152;2022-10-17T11:05:38;3.65;;;2.10;;
34657;SDS011;20865;43.312;27.152;2022-10-17T11:08:17;3.98;;;1.90;;
34657;SDS011;20865;43.312;27.152;2022-10-17T11:10:56;5.22;;;1.77;;
34657;SDS011;20865;43.312;27.152;2022-10-17T11:13:40;2.75;;;1.98;;
34657;SDS011;20865;43.312;27.152;2022-10-17T11:16:17;2.87;;;2.15;;
34657;SDS011;20865;43.312;27.152;2022-10-17T11:21:18;5.03;;;2.47;;
34657;SDS011;20865;43.312;27.152;2022-10-17T11:23:55;4.40;;;2.47;;
34657;SDS011;20865;43.312;27.152;2022-10-17T11:26:37;4.00;;;2.47;;
34657;SDS011;20865;43.312;27.152;2022-10-17T11:29:08;5.28;;;2.80;;
34657;SDS011;20865;43.312;27.152;2022-10-17T11:31:40;2.60;;;2.02;;
34657;SDS011;20865;43.312;27.152;2022-10-17T11:34:24;26.40;;;3.45;;
34657;SDS011;20865;43.312;27.152;2022-10-17T11:36:49;3.37;;;2.22;;
34657;SDS011;20865;43.312;27.152;2022-10-17T11:39:20;3.72;;;2.00;;
34657;SDS011;20865;43.312;27.152;2022-10-17T11:41:53;4.87;;;2.20;;
34657;SDS011;20865;43.312;27.152;2022-10-17T11:44:36;6.70;;;2.08;;
34657;SDS011;20865;43.312;27.152;2022-10-17T11:47:24;2.12;;;1.72;;
34657;SDS011;20865;43.312;27.152;2022-10-17T11:50:01;3.30;;;1.98;;
34657;SDS011;20865;43.312;27.152;2022-10-17T11:55:09;3.77;;;1.85;;
34657;SDS011;20865;43.312;27.152;2022-10-17T12:07:01;5.15;;;1.35;;
34657;SDS011;20865;43.312;27.152;2022-10-17T12:12:30;2.87;;;1.55;;
34657;SDS011;20865;43.312;27.152;2022-10-17T12:17:56;4.47;;;2.42;;
34657;SDS011;20865;43.312;27.152;2022-10-17T12:20:28;4.62;;;2.00;;
34657;SDS011;20865;43.312;27.152;2022-10-17T12:26:16;2.67;;;1.67;;
34657;SDS011;20865;43.312;27.152;2022-10-17T12:28:23;2.22;;;1.60;;
34657;SDS011;20865;43.312;27.152;2022-10-17T12:30:54;6.75;;;2.12;;
34657;SDS011;20865;43.312;27.152;2022-10-17T12:33:32;10.70;;;4.08;;
34657;SDS011;20865;43.312;27.152;2022-10-17T12:38:51;3.35;;;1.60;;
34657;SDS011;20865;43.312;27.152;2022-10-17T12:54:58;4.65;;;1.82;;
34657;SDS011;20865;43.312;27.152;2022-10-17T13:02:54;3.12;;;1.72;;
34657;SDS011;20865;43.312;27.152;2022-10-17T13:05:27;3.95;;;1.50;;
34657;SDS011;20865;43.312;27.152;2022-10-17T13:07:58;3.95;;;1.82;;
34657;SDS011;20865;43.312;27.152;2022-10-17T13:10:29;5.90;;;1.82;;
34657;SDS011;20865;43.312;27.152;2022-10-17T13:15:49;4.60;;;1.70;;
34657;SDS011;20865;43.312;27.152;2022-10-17T13:18:19;4.28;;;1.70;;
34657;SDS011;20865;43.312;27.152;2022-10-17T13:20:53;5.47;;;1.92;;
34657;SDS011;20865;43.312;27.152;2022-10-17T13:23:22;2.08;;;1.60;;
34657;SDS011;20865;43.312;27.152;2022-10-17T13:26:04;5.20;;;1.67;;
34657;SDS011;20865;43.312;27.152;2022-10-17T13:28:34;3.92;;;1.90;;
34657;SDS011;20865;43.312;27.152;2022-10-17T13:31:02;2.77;;;1.50;;
34657;SDS011;20865;43.312;27.152;2022-10-17T13:33:32;7.33;;;1.90;;
34657;SDS011;20865;43.312;27.152;2022-10-17T13:36:02;2.67;;;1.95;;
34657;SDS011;20865;43.312;27.152;2022-10-17T13:38:32;5.62;;;1.90;;
34657;SDS011;20865;43.312;27.152;2022-10-17T13:41:01;5.95;;;1.85;;
34657;SDS011;20865;43.312;27.152;2022-10-17T13:43:29;2.85;;;1.62;;
34657;SDS011;20865;43.312;27.152;2022-10-17T13:45:59;3.52;;;1.72;;
34657;SDS011;20865;43.312;27.152;2022-10-17T13:48:29;4.62;;;1.70;;
34657;SDS011;20865;43.312;27.152;2022-10-17T13:50:59;2.45;;;1.77;;
34657;SDS011;20865;43.312;27.152;2022-10-17T13:53:33;5.03;;;1.85;;
34657;SDS011;20865;43.312;27.152;2022-10-17T13:58:48;2.42;;;1.60;;
34657;SDS011;20865;43.312;27.152;2022-10-17T14:01:17;2.12;;;1.62;;
34657;SDS011;20865;43.312;27.152;2022-10-17T14:03:46;3.85;;;2.27;;
34657;SDS011;20865;43.312;27.152;2022-10-17T14:06:21;4.17;;;1.95;;
34657;SDS011;20865;43.312;27.152;2022-10-17T14:08:51;2.77;;;1.72;;
34657;SDS011;20865;43.312;27.152;2022-10-17T14:14:00;2.83;;;2.08;;
34657;SDS011;20865;43.312;27.152;2022-10-17T14:16:33;19.98;;;2.85;;
34657;SDS011;20865;43.312;27.152;2022-10-17T14:19:03;7.35;;;1.70;;
34657;SDS011;20865;43.312;27.152;2022-10-17T14:21:32;3.62;;;1.92;;
34657;SDS011;20865;43.312;27.152;2022-10-17T14:24:12;2.22;;;1.55;;
34657;SDS011;20865;43.312;27.152;2022-10-17T14:29:21;3.25;;;1.62;;
34657;SDS011;20865;43.312;27.152;2022-10-17T14:31:57;3.77;;;1.75;;
34657;SDS011;20865;43.312;27.152;2022-10-17T14:34:36;3.00;;;1.77;;
34657;SDS011;20865;43.312;27.152;2022-10-17T14:37:01;2.58;;;2.08;;
34657;SDS011;20865;43.312;27.152;2022-10-17T14:39:38;2.25;;;1.67;;
34657;SDS011;20865;43.312;27.152;2022-10-17T14:42:14;5.35;;;2.45;;
34657;SDS011;20865;43.312;27.152;2022-10-17T14:44:36;3.87;;;2.00;;
34657;SDS011;20865;43.312;27.152;2022-10-17T14:47:05;14.98;;;2.60;;
34657;SDS011;20865;43.312;27.152;2022-10-17T14:49:38;3.15;;;2.10;;
34657;SDS011;20865;43.312;27.152;2022-10-17T14:52:40;7.17;;;2.05;;
34657;SDS011;20865;43.312;27.152;2022-10-17T14:54:43;2.27;;;1.50;;
34657;SDS011;20865;43.312;27.152;2022-10-17T14:57:16;3.72;;;2.00;;
34657;SDS011;20865;43.312;27.152;2022-10-17T14:59:43;3.75;;;1.87;;
34657;SDS011;20865;43.312;27.152;2022-10-17T15:02:10;7.87;;;1.90;;
34657;SDS011;20865;43.312;27.152;2022-10-17T15:04:39;8.00;;;2.62;;
34657;SDS011;20865;43.312;27.152;2022-10-17T15:07:14;4.83;;;1.95;;
34657;SDS011;20865;43.312;27.152;2022-10-17T15:09:42;2.72;;;2.00;;
34657;SDS011;20865;43.312;27.152;2022-10-17T15:12:15;3.37;;;1.80;;
34657;SDS011;20865;43.312;27.152;2022-10-17T15:14:44;4.97;;;2.15;;
34657;SDS011;20865;43.312;27.152;2022-10-17T15:17:17;7.22;;;2.87;;
34657;SDS011;20865;43.312;27.152;2022-10-17T15:19:46;7.65;;;3.05;;
34657;SDS011;20865;43.312;27.152;2022-10-17T15:22:15;11.65;;;4.53;;
34657;SDS011;20865;43.312;27.152;2022-10-17T15:24:43;7.72;;;3.27;;
34657;SDS011;20865;43.312;27.152;2022-10-17T15:27:21;8.13;;;3.95;;
34657;SDS011;20865;43.312;27.152;2022-10-17T15:29:50;6.22;;;3.27;;
34657;SDS011;20865;43.312;27.152;2022-10-17T15:32:18;5.42;;;2.87;;
34657;SDS011;20865;43.312;27.152;2022-10-17T15:34:46;5.80;;;2.83;;
34657;SDS011;20865;43.312;27.152;2022-10-17T15:37:15;4.45;;;2.98;;
34657;SDS011;20865;43.312;27.152;2022-10-17T15:39:47;4.80;;;2.20;;
34657;SDS011;20865;43.312;27.152;2022-10-17T15:42:21;3.75;;;2.25;;
34657;SDS011;20865;43.312;27.152;2022-10-17T15:44:51;4.62;;;2.08;;
34657;SDS011;20865;43.312;27.152;2022-10-17T15:47:23;11.40;;;2.50;;
34657;SDS011;20865;43.312;27.152;2022-10-17T15:49:56;33.55;;;13.30;;
34657;SDS011;20865;43.312;27.152;2022-10-17T15:52:24;26.77;;;11.78;;
34657;SDS011;20865;43.312;27.152;2022-10-17T15:54:53;48.23;;;19.90;;
34657;SDS011;20865;43.312;27.152;2022-10-17T15:57:22;26.80;;;11.28;;
34657;SDS011;20865;43.312;27.152;2022-10-17T15:59:51;9.40;;;3.87;;
34657;SDS011;20865;43.312;27.152;2022-10-17T16:02:20;6.65;;;3.10;;
34657;SDS011;20865;43.312;27.152;2022-10-17T16:04:49;4.00;;;2.50;;
34657;SDS011;20865;43.312;27.152;2022-10-17T16:07:18;8.93;;;2.85;;
34657;SDS011;20865;43.312;27.152;2022-10-17T16:09:46;6.47;;;2.33;;
34657;SDS011;20865;43.312;27.152;2022-10-17T16:12:16;3.17;;;2.08;;
34657;SDS011;20865;43.312;27.152;2022-10-17T16:14:44;3.90;;;2.33;;
34657;SDS011;20865;43.312;27.152;2022-10-17T16:17:12;3.12;;;2.15;;
34657;SDS011;20865;43.312;27.152;2022-10-17T16:19:41;6.12;;;2.55;;
34657;SDS011;20865;43.312;27.152;2022-10-17T16:22:31;7.08;;;2.02;;
34657;SDS011;20865;43.312;27.152;2022-10-17T16:24:45;2.75;;;1.90;;
34657;SDS011;20865;43.312;27.152;2022-10-17T16:27:13;5.30;;;2.17;;
34657;SDS011;20865;43.312;27.152;2022-10-17T16:29:40;4.25;;;2.35;;
34657;SDS011;20865;43.312;27.152;2022-10-17T16:32:08;5.92;;;2.33;;
34657;SDS011;20865;43.312;27.152;2022-10-17T16:34:36;3.80;;;2.08;;
34657;SDS011;20865;43.312;27.152;2022-10-17T16:37:04;5.53;;;2.22;;
34657;SDS011;20865;43.312;27.152;2022-10-17T16:39:31;4.42;;;2.67;;
34657;SDS011;20865;43.312;27.152;2022-10-17T16:41:59;3.02;;;1.87;;
34657;SDS011;20865;43.312;27.152;2022-10-17T16:44:26;4.72;;;2.20;;